createdAt,value
2022-09-03T00:03:49.012Z,97193.00
2022-09-03T00:06:48.766Z,97197.50
2022-09-03T00:09:44.022Z,97200.38
2022-09-03T00:12:36.976Z,97190.22
2022-09-03T00:15:27.395Z,97193.53
2022-09-03T00:42:55.068Z,97184.50
2022-09-03T00:46:06.707Z,97187.00
2022-09-03T00:49:06.211Z,97189.06
2022-09-03T00:55:38.901Z,97180.59
2022-09-03T00:58:39.885Z,97186.31
2022-09-03T01:01:58.423Z,97188.94
2022-09-03T01:04:52.052Z,97181.47
2022-09-03T01:14:00.872Z,97170.81
2022-09-03T01:19:57.342Z,97168.59
2022-09-03T01:28:56.740Z,97165.81
2022-09-03T01:34:37.152Z,97169.34
2022-09-03T01:40:54.784Z,97183.38
2022-09-03T01:53:45.878Z,97182.69
2022-09-03T01:56:38.160Z,97183.94
2022-09-03T01:59:52.132Z,97189.09
2022-09-03T02:03:02.595Z,97180.78
2022-09-03T02:06:14.068Z,97179.81
2022-09-03T02:09:32.750Z,97175.22
2022-09-03T02:12:26.198Z,97169.31
2022-09-03T02:15:20.320Z,97173.22
2022-09-03T02:18:17.349Z,97184.19
2022-09-03T02:21:35.099Z,97187.06
2022-09-03T02:24:25.467Z,97184.84
2022-09-03T02:27:16.075Z,97187.34
2022-09-03T02:30:12.146Z,97186.53
2022-09-03T02:33:23.361Z,97183.06
2022-09-03T02:36:18.750Z,97196.50
2022-09-03T02:39:30.087Z,97187.63
2022-09-03T02:42:43.140Z,97189.06
2022-09-03T02:48:24.780Z,97180.19
2022-09-03T02:51:14.677Z,97179.38
2022-09-03T02:54:26.256Z,97171.28
2022-09-03T03:00:11.931Z,97164.66
2022-09-03T03:02:59.450Z,97168.91
2022-09-03T03:09:09.222Z,97157.75
2022-09-03T03:11:59.424Z,97162.69
2022-09-03T03:14:45.402Z,97163.47
2022-09-03T03:17:32.517Z,97169.16
2022-09-03T03:20:22.462Z,97163.94
2022-09-03T03:23:35.167Z,97152.84
2022-09-03T03:26:24.446Z,97147.81
2022-09-03T03:29:16.167Z,97144.59
2022-09-03T03:32:02.251Z,97151.47
2022-09-03T03:34:48.077Z,97146.66
2022-09-03T03:37:35.808Z,97159.84
2022-09-03T03:40:21.578Z,97151.31
2022-09-03T03:43:07.647Z,97153.94
2022-09-03T03:46:00.179Z,97149.13
2022-09-03T03:48:49.145Z,97154.81
2022-09-03T03:51:36.184Z,97162.09
2022-09-03T03:54:22.569Z,97167.44
2022-09-03T03:57:08.768Z,97167.66
2022-09-03T03:59:54.833Z,97167.28
2022-09-03T04:02:40.628Z,97164.63
2022-09-03T04:05:26.865Z,97166.44
2022-09-03T04:08:13.810Z,97158.31
2022-09-03T04:11:01.806Z,97156.91
2022-09-03T04:13:44.570Z,97163.22
2022-09-03T04:16:27.252Z,97155.72
2022-09-03T04:19:13.914Z,97151.91
2022-09-03T04:22:00.112Z,97157.38
2022-09-03T04:24:46.301Z,97153.13
2022-09-03T04:27:32.101Z,97157.59
2022-09-03T04:30:18.131Z,97164.47
2022-09-03T04:33:04.055Z,97169.53
2022-09-03T04:35:50.156Z,97167.13
2022-09-03T04:38:40.078Z,97163.47
2022-09-03T04:41:28.910Z,97162.91
2022-09-03T04:44:14.849Z,97174.69
2022-09-03T04:47:03.767Z,97169.50
2022-09-03T04:49:49.762Z,97178.41
2022-09-03T07:18:11.684Z,97164.59
2022-09-03T07:21:01.890Z,97166.03
2022-09-03T07:23:52.745Z,97157.06
2022-09-03T10:28:13.494Z,97122.03
2022-09-03T10:31:13.727Z,97119.56
2022-09-03T11:59:24.005Z,97059.03
2022-09-03T12:02:29.412Z,97054.41
2022-09-03T12:05:19.725Z,97060.34
2022-09-03T12:08:12.279Z,97058.34
2022-09-03T14:17:19.403Z,96996.72
2022-09-03T14:54:07.885Z,97008.56
2022-09-03T16:20:47.117Z,96980.34
2022-09-03T16:24:03.693Z,96977.81
2022-09-03T22:58:53.363Z,97236.66
2022-09-03T23:56:50.067Z,97251.81
